ADDS METAR Data INFO
IDs: Format: Raw Decoded Include TAF

Data at: 1808 UTC 18 Feb 2018

KBYI 181753Z AUTO 24008KT 10SM FEW055 SCT075 BKN110 00/M02 A2959 RMK AO2 SNE03 SLP015 P0000 60028 T00001022 10006 20000 56008
KBYI 181653Z AUTO 28013G24KT 7SM -SN FEW033 BKN044 OVC055 00/M02 A2959 RMK AO2 UPB45E51SNE45B51 SLP016 P0000 T00001017
KBYI 181642Z AUTO 27013G21KT 6SM -SN BR BKN035 BKN055 00/M02 A2959 RMK AO2 P0000 T00001017
KBYI 181637Z AUTO 27013G21KT 2SM -SN BR FEW009 BKN028 OVC036 00/M02 A2959 RMK AO2 P0000 T00001017
KBYI 181621Z AUTO 27012G21KT 3/4SM -SN BR FEW009 BKN022 OVC042 00/M01 A2961 RMK AO2 P0000 T00001006
KBYI 181613Z AUTO 28010G19KT 2 1/2SM -SN BR FEW007 BKN026 OVC049 00/M01 A2960 RMK AO2 P0000 T00001006
KBYI 181604Z AUTO 27010KT 3SM -SN BR FEW010 BKN026 OVC045 00/M01 A2960 RMK AO2 P0000 T00001006
KBYI 181553Z AUTO 26011G19KT 1 1/4SM -SN BR FEW007 BKN015 OVC047 00/M01 A2961 RMK AO2 SLP022 P0002 T00001006
KBYI 181537Z AUTO 26010KT 3/4SM -SN BR FEW007 OVC011 00/M01 A2961 RMK AO2 P0002 T00001006
KBYI 181502Z AUTO 24009KT 1/2SM SN FG VV008 00/00 A2962 RMK AO2 P0001 T00000000
KBYI 181453Z AUTO 24011KT 1/2SM SN FG FEW005 OVC010 00/00 A2962 RMK AO2 SLP024 P0004 60026 T00000000 52002
KBYI 181441Z AUTO 24011G18KT 3/4SM -SN BR FEW005 OVC010 00/00 A2961 RMK AO2 P0004 T00000000
KBYI 181424Z AUTO 23011KT 1 1/4SM -SN BR OVC008 00/00 A2960 RMK AO2 P0003 T00000000
KBYI 181404Z AUTO 26006KT 1SM -SN BR VV007 00/00 A2960 RMK AO2 P0002 T00000000
KBYI 181353Z AUTO 26008KT 1/2SM SN FG VV005 00/00 A2961 RMK AO2 SLP023 P0012 T00000000
KBYI 181350Z AUTO 26009KT 1/2SM SN FG VV004 00/00 A2961 RMK AO2 P0012
KBYI 181253Z AUTO 24005KT 1/2SM SN FG VV007 00/00 A2961 RMK AO2 SLP024 P0010 T00000000
KBYI 181239Z AUTO 26006KT 1SM -SN BR VV009 00/00 A2961 RMK AO2 P0006 T00000000
KBYI 181233Z AUTO 24006KT 2 1/2SM -SN BR FEW004 BKN010 OVC023 01/M01 A2962 RMK AO2 P0006 T00061006
KBYI 181226Z AUTO 25007KT 2SM -SN BR FEW004 BKN008 OVC020 00/00 A2962 RMK AO2 P0005 T00000000
KBYI 181206Z AUTO 25006KT 1SM -SN BR OVC005 00/00 A2962 RMK AO2 P0002 T00000000
KBYI 181158Z AUTO 25010KT 1 3/4SM -SN BR SCT005 OVC011 01/00 A2963 RMK AO2 P0001 T00060000
KBYI 181153Z AUTO 25010KT 3SM -SN BR BKN007 OVC011 01/00 A2962 RMK AO2 RAE45SNB45 SLP027 P0006 60020 70020 T00110000 10122 20011 51016
KBYI 181149Z AUTO 25012KT 5SM -SN BR OVC009 01/00 A2963 RMK AO2 RAE45SNB45 P0005
KBYI 181105Z AUTO 28011G20KT 6SM -RA BR BKN010 OVC015 02/01 A2960 RMK AO2 P0002 T00170006
KBYI 181053Z AUTO 28013G30KT 4SM RA BR SCT013 OVC017 03/01 A2961 RMK AO2 PK WND 26030/1044 SLP017 P0009 T00280011
KBYI 181048Z AUTO 28016G30KT 4SM RA BR BKN016 BKN021 OVC027 03/02 A2961 RMK AO2 PK WND 26030/1044 P0007
KBYI 181041Z AUTO 27009G23KT 4SM RA BR SCT016 SCT024 OVC030 04/02 A2960 RMK AO2 P0005 T00390017
KBYI 180953Z AUTO 29010KT 10SM -RA SCT037 BKN060 OVC110 05/02 A2957 RMK AO2 RAE44B53 SLP000 P0003 T00500022
KBYI 180946Z AUTO 29008KT 10SM SCT033 BKN065 OVC110 05/02 A2957 RMK AO2 RAE44 P0003 T00500022
KBYI 180935Z AUTO 28008G22KT 7SM -RA BKN027 BKN039 OVC070 05/02 A2957 RMK AO2 P0003 T00500022
KBYI 180853Z AUTO 28013G23KT 10SM -RA OVC041 06/02 A2958 RMK AO2 PK WND 28032/0806 SLP002 P0002 60002 T00560022 58007
KBYI 180753Z AUTO 29010KT 10SM -RA BKN043 OVC055 07/02 A2961 RMK AO2 PK WND 30032/0728 RAE01B28 SLP012 P0000 T00670022
KBYI 180653Z AUTO 31012G31KT 10SM -RA OVC065 11/M03 A2959 RMK AO2 PK WND 24038/0639 RAB19 SLP999 P0000 T01111033 401331006
KBYI 180553Z AUTO 20019G28KT 10SM OVC085 10/M06 A2960 RMK AO2 PK WND 21028/0549 SLP009 T01001056 10106 20083 56029
KBYI 180453Z AUTO 21019G26KT 10SM BKN100 11/M06 A2963 RMK AO2 PK WND 20027/0443 SLP025 T01061056
KBYI 180353Z AUTO 21018KT 10SM BKN080 10/M05 A2966 RMK AO2 PK WND 22026/0331 SLP040 T01001050
KBYI 180253Z AUTO 21017G23KT 10SM OVC070 11/M05 A2970 RMK AO2 PK WND 21026/0211 SLP051 T01061050 58035
KBYI 180153Z AUTO 23010KT 10SM OVC070 09/M03 A2975 RMK AO2 SLP070 T00941033
KBYI 180053Z AUTO 23007KT 10SM OVC070 08/M03 A2979 RMK AO2 SLP086 T00831028
KBYI 172353Z AUTO 27009KT 10SM OVC075 10/M04 A2982 RMK AO2 SLP094 T01001039 10133 20072 56029
KBYI 172253Z AUTO 28010G22KT 10SM OVC075 11/M05 A2985 RMK AO2 PK WND 27031/2217 SLP105 T01061050
KBYI 172153Z AUTO 23014G23KT 10SM BKN080 13/M06 A2987 RMK AO2 SLP106 T01281061
KBYI 172053Z AUTO 25013G22KT 10SM BKN085 11/M07 A2991 RMK AO2 SLP125 T01111067 58046
KBYI 171953Z AUTO 26012G19KT 10SM CLR 10/M07 A2997 RMK AO2 SLP147 T01001067
KBYI 171853Z AUTO 23013G23KT 10SM CLR 09/M07 A3001 RMK AO2 SLP163 T00941067
KBYI 171753Z AUTO 22011KT 10SM CLR 07/M06 A3007 RMK AO2 SLP185 T00721061 10072 21006 58015
KBYI 171653Z AUTO 22009KT 10SM BKN095 04/M04 A3010 RMK AO2 SLP202 T00391044
KBYI 171553Z AUTO 21008KT 10SM SCT120 01/M04 A3011 RMK AO2 SLP208 T00111044
KBYI 171453Z AUTO 25006KT 10SM SCT042 OVC100 01/M04 A3012 RMK AO2 SLP213 T00111044 55001
KBYI 171353Z AUTO 25008KT 10SM SCT042 OVC110 01/M04 A3012 RMK AO2 SLP213 T00061044
KBYI 171253Z AUTO 23006KT 10SM BKN043 00/M04 A3012 RMK AO2 SLP214 T00001044
KBYI 171153Z AUTO 23010KT 10SM OVC048 01/M05 A3012 RMK AO2 SLP212 T00111050 10022 20006 58004
KBYI 171053Z AUTO 24011KT 10SM CLR 01/M05 A3013 RMK AO2 SLP215 T00061050
KBYI 170953Z AUTO 24012KT 10SM OVC055 02/M04 A3014 RMK AO2 SLP214 T00221044
KBYI 170853Z AUTO 24011KT 10SM OVC050 02/M04 A3013 RMK AO2 SLP212 T00221044 51004
KBYI 170753Z AUTO 25011KT 10SM OVC055 02/M04 A3013 RMK AO2 SLP212 T00171044
KBYI 170653Z AUTO 24008KT 10SM OVC055 02/M05 A3014 RMK AO2 SLP216 T00171050 400391056